Time;durP1;ratioP1;P1;durP2;ratioP2;P2;SDS_P1;SDS_P2;PMS_P1;PMS_P2;Temp;Humidity;BMP_temperature;BMP_pressure;BME280_temperature;BME280_humidity;BME280_pressure;Samples;Min_cycle;Max_cycle;Signal;HPM_P1;HPM_P2
2022/10/09 00:01:33;;;;;;;0.17;0.17;;;9.80;99.90;;;;;;5024984;28;20041;-74
2022/10/09 00:03:59;;;;;;;0.20;0.20;;;9.80;99.90;;;;;;5295367;23;21394;-74
2022/10/09 00:11:48;;;;;;;0.20;0.20;;;9.80;99.90;;;;;;5489206;22;20474;-73
2022/10/09 00:14:14;;;;;;;0.10;0.10;;;9.80;99.90;;;;;;4984630;28;20043;-72
2022/10/09 00:16:40;;;;;;;0.20;0.20;;;9.80;99.90;;;;;;4989255;28;20038;-73
2022/10/09 00:19:08;;;;;;;0.20;0.20;;;9.80;99.90;;;;;;4988953;28;20050;-72
2022/10/09 00:21:34;;;;;;;0.20;0.20;;;9.70;99.90;;;;;;4989042;28;20094;-73
2022/10/09 00:24:01;;;;;;;0.20;0.20;;;9.80;99.90;;;;;;4987859;28;20034;-73
2022/10/09 00:26:27;;;;;;;0.20;0.20;;;9.80;99.90;;;;;;4987517;28;20101;-73
2022/10/09 00:28:57;;;;;;;0.20;0.20;;;9.80;99.90;;;;;;4992668;28;20580;-73
2022/10/09 00:31:23;;;;;;;0.20;0.20;;;9.70;99.90;;;;;;4989683;28;20064;-73
2022/10/09 00:45:00;;;;;;;0.13;0.13;;;9.70;99.90;;;;;;5200086;23;20496;-73
2022/10/09 00:51:33;;;;;;;0.10;0.10;;;9.20;99.90;;;;;;5025236;28;20080;-73
2022/10/09 00:54:03;;;;;;;0.10;0.10;;;9.70;99.90;;;;;;5005574;28;20034;-74
2022/10/09 00:56:29;;;;;;;0.20;0.20;;;9.70;99.90;;;;;;5001500;28;20128;-74
2022/10/09 00:58:56;;;;;;;0.20;0.20;;;9.60;99.90;;;;;;4982561;28;20129;-73
2022/10/09 01:01:22;;;;;;;0.20;0.20;;;10.10;99.90;;;;;;4982584;28;20046;-74
2022/10/09 01:03:48;;;;;;;0.13;0.13;;;9.60;99.90;;;;;;4992984;28;20045;-73
2022/10/09 01:06:20;;;;;;;0.20;0.20;;;9.60;99.90;;;;;;4994928;28;20794;-72
2022/10/09 01:08:45;;;;;;;0.20;0.20;;;9.60;99.90;;;;;;5009370;28;20050;-73
2022/10/09 01:11:29;;;;;;;0.20;0.20;;;9.50;99.90;;;;;;4993678;28;20044;-74
2022/10/09 01:14:17;;;;;;;0.20;0.20;;;9.50;99.90;;;;;;5003767;28;20081;-74
2022/10/09 01:17:14;;;;;;;0.10;0.10;;;9.50;99.90;;;;;;4988096;28;20057;-74
2022/10/09 01:20:00;;;;;;;0.20;0.20;;;9.50;99.90;;;;;;4989511;28;20050;-74
2022/10/09 01:23:35;;;;;;;0.20;0.20;;;9.50;99.90;;;;;;4995992;23;20049;-74
2022/10/09 01:26:45;;;;;;;0.10;0.10;;;10.00;99.90;;;;;;4981078;28;20061;-73
2022/10/09 01:29:13;;;;;;;0.20;0.20;;;9.50;99.90;;;;;;5005584;28;20132;-73
2022/10/09 01:40:28;;;;;;;0.10;0.10;;;9.40;99.90;;;;;;4980608;28;20089;-74
2022/10/09 01:43:04;;;;;;;0.15;0.15;;;9.40;99.90;;;;;;4960027;28;20043;-74
2022/10/09 01:46:16;;;;;;;0.15;0.15;;;9.40;99.90;;;;;;4968029;28;20150;-73
2022/10/09 02:00:15;;;;;;;0.20;0.20;;;9.30;99.90;;;;;;4887158;29;20052;-73
2022/10/09 02:03:10;;;;;;;0.20;0.20;;;9.70;99.90;;;;;;4869801;29;20057;-73
2022/10/09 02:06:13;;;;;;;0.10;0.10;;;9.30;99.90;;;;;;4884615;29;20052;-73
2022/10/09 02:08:41;;;;;;;0.17;0.17;;;9.40;99.90;;;;;;4869374;29;20045;-74
2022/10/09 02:11:07;;;;;;;0.10;0.10;;;9.30;99.90;;;;;;4857730;29;20045;-74
2022/10/09 02:13:34;;;;;;;0.10;0.10;;;9.30;99.90;;;;;;4906540;28;20054;-73
2022/10/09 02:16:21;;;;;;;0.15;0.15;;;9.30;99.90;;;;;;4971445;28;20122;-73
2022/10/09 02:19:01;;;;;;;0.20;0.20;;;9.20;99.90;;;;;;4967755;28;20054;-74
2022/10/09 02:21:54;;;;;;;0.10;0.10;;;9.20;99.90;;;;;;4989133;28;20371;-73
2022/10/09 02:24:21;;;;;;;0.20;0.20;;;9.20;99.90;;;;;;4974806;28;20078;-73
2022/10/09 02:26:46;;;;;;;0.20;0.20;;;9.10;99.90;;;;;;4964129;28;20050;-73
2022/10/09 02:29:13;;;;;;;0.10;0.10;;;9.10;99.90;;;;;;4980028;28;20438;-73
2022/10/09 02:31:42;;;;;;;0.17;0.17;;;9.10;99.90;;;;;;4975162;28;20053;-73
2022/10/09 02:34:11;;;;;;;0.20;0.20;;;9.10;99.90;;;;;;4984190;28;21414;-74
2022/10/09 02:36:38;;;;;;;0.10;0.10;;;9.10;99.90;;;;;;4968523;28;20050;-73
2022/10/09 02:39:07;;;;;;;0.20;0.20;;;9.00;99.90;;;;;;4967721;28;20043;-73
2022/10/09 02:41:34;;;;;;;0.10;0.10;;;9.00;99.90;;;;;;4964894;28;20046;-73
2022/10/09 02:44:00;;;;;;;0.10;0.10;;;9.00;99.90;;;;;;4957987;28;20035;-73
2022/10/09 02:46:26;;;;;;;0.20;0.20;;;9.00;99.90;;;;;;4970914;28;20058;-73
2022/10/09 02:48:52;;;;;;;0.20;0.20;;;8.90;99.90;;;;;;4973412;28;20099;-72
2022/10/09 02:51:19;;;;;;;0.20;0.20;;;8.90;99.90;;;;;;4968260;28;20443;-74
2022/10/09 02:53:47;;;;;;;0.20;0.20;;;8.90;99.90;;;;;;4962404;28;20050;-74
2022/10/09 02:56:13;;;;;;;0.20;0.20;;;8.90;99.90;;;;;;4963457;28;20047;-73
2022/10/09 02:58:39;;;;;;;0.10;0.10;;;8.80;99.90;;;;;;4967195;28;20085;-73
2022/10/09 03:01:05;;;;;;;0.20;0.20;;;8.90;99.90;;;;;;4959323;28;20559;-73
2022/10/09 03:03:34;;;;;;;0.20;0.20;;;8.90;99.90;;;;;;4954019;28;20067;-74
2022/10/09 03:06:08;;;;;;;0.20;0.20;;;8.80;99.90;;;;;;4967368;28;20092;-74
2022/10/09 03:08:40;;;;;;;0.20;0.20;;;8.70;99.90;;;;;;4957616;28;20058;-74
2022/10/09 03:11:05;;;;;;;0.10;0.10;;;8.70;99.90;;;;;;4963086;28;20038;-74
2022/10/09 03:13:31;;;;;;;0.20;0.20;;;8.70;99.90;;;;;;4964534;28;20051;-73
2022/10/09 03:16:05;;;;;;;0.20;0.20;;;8.70;99.90;;;;;;5024199;22;20149;-74
2022/10/09 03:18:33;;;;;;;0.20;0.20;;;8.90;99.90;;;;;;4950894;28;20069;-74
2022/10/09 03:20:59;;;;;;;0.20;0.20;;;8.70;99.90;;;;;;4965055;28;20034;-74
2022/10/09 03:23:26;;;;;;;0.15;0.15;;;8.60;99.90;;;;;;4968189;28;20133;-74
2022/10/09 03:25:59;;;;;;;0.20;0.20;;;8.70;99.90;;;;;;4966402;28;20072;-73
2022/10/09 03:28:25;;;;;;;0.20;0.20;;;8.70;99.90;;;;;;4966787;28;20500;-74
2022/10/09 03:30:54;;;;;;;0.20;0.20;;;8.60;99.90;;;;;;4967314;28;20038;-74
2022/10/09 03:37:13;;;;;;;0.20;0.20;;;8.30;99.90;;;;;;5573012;23;20084;-74
2022/10/09 03:39:38;;;;;;;0.20;0.20;;;8.70;99.90;;;;;;5026389;28;20056;-74
2022/10/09 03:42:04;;;;;;;0.20;0.20;;;8.60;99.90;;;;;;5045004;28;20090;-74
2022/10/09 03:44:30;;;;;;;0.15;0.15;;;8.60;99.90;;;;;;5046196;28;20045;-73
2022/10/09 03:46:55;;;;;;;0.20;0.20;;;8.60;99.90;;;;;;5024056;28;20053;-74
2022/10/09 03:58:35;;;;;;;0.20;0.20;;;8.40;99.90;;;;;;5047639;23;20513;-74
2022/10/09 04:01:37;;;;;;;0.20;0.20;;;8.40;99.90;;;;;;5004471;28;20049;-74
2022/10/09 04:04:28;;;;;;;0.20;0.20;;;8.30;99.90;;;;;;5022676;28;20030;-74
2022/10/09 04:06:57;;;;;;;0.20;0.20;;;8.10;99.90;;;;;;5003379;28;20473;-74
2022/10/09 04:09:23;;;;;;;0.20;0.20;;;8.30;99.90;;;;;;5005930;28;20038;-74
2022/10/09 04:11:48;;;;;;;0.15;0.15;;;8.20;99.90;;;;;;4994998;28;20083;-74
2022/10/09 04:14:14;;;;;;;0.20;0.20;;;8.20;99.90;;;;;;5023552;28;20045;-73
2022/10/09 04:17:23;;;;;;;0.20;0.20;;;8.10;99.90;;;;;;5046257;22;20418;-73
2022/10/09 04:19:49;;;;;;;0.20;0.20;;;8.00;99.90;;;;;;5023812;28;20562;-74
2022/10/09 04:22:15;;;;;;;0.25;0.25;;;8.00;99.90;;;;;;5045784;28;20075;-74
2022/10/09 04:24:40;;;;;;;0.20;0.20;;;8.00;99.90;;;;;;5044537;28;20039;-74
2022/10/09 04:27:06;;;;;;;0.20;0.20;;;8.00;99.90;;;;;;5042130;28;20043;-73
2022/10/09 04:29:32;;;;;;;0.20;0.20;;;7.90;99.90;;;;;;5035561;28;20050;-72
2022/10/09 04:31:58;;;;;;;0.20;0.20;;;7.90;99.90;;;;;;5042367;28;20040;-73
2022/10/09 04:42:22;;;;;;;0.20;0.20;;;7.80;99.90;;;;;;3323987;26;20050;-74
2022/10/09 04:44:50;;;;;;;0.20;0.20;;;7.90;99.90;;;;;;4982393;28;20050;-74
2022/10/09 04:55:26;;;;;;;0.20;0.20;;;6.90;99.90;;;;;;4927141;29;20079;-74
2022/10/09 04:57:52;;;;;;;0.20;0.20;;;7.70;99.90;;;;;;4914654;28;20047;-74
2022/10/09 05:00:18;;;;;;;0.20;0.20;;;7.70;99.90;;;;;;4963879;28;20042;-74
2022/10/09 05:02:43;;;;;;;0.20;0.20;;;7.70;99.90;;;;;;4982895;28;20058;-74
2022/10/09 05:05:09;;;;;;;0.20;0.20;;;7.70;99.90;;;;;;4967026;28;20085;-74
2022/10/09 05:07:34;;;;;;;0.10;0.10;;;7.60;99.90;;;;;;4984178;28;20496;-73
2022/10/09 05:10:00;;;;;;;0.10;0.10;;;7.60;99.90;;;;;;4966201;28;20042;-74
2022/10/09 05:12:26;;;;;;;0.10;0.10;;;7.60;99.90;;;;;;4967852;28;20045;-74
2022/10/09 05:14:51;;;;;;;0.10;0.10;;;7.50;99.90;;;;;;4980300;28;20580;-74
2022/10/09 05:17:17;;;;;;;0.13;0.13;;;7.50;99.90;;;;;;4970928;28;20548;-74
2022/10/09 05:19:42;;;;;;;0.20;0.20;;;7.50;99.90;;;;;;4968758;28;20053;-74
2022/10/09 05:22:08;;;;;;;0.13;0.13;;;7.50;99.90;;;;;;4971411;28;20038;-74
2022/10/09 05:24:34;;;;;;;0.20;0.20;;;7.40;99.90;;;;;;4967712;28;20055;-73
2022/10/09 05:27:00;;;;;;;0.20;0.20;;;7.40;99.90;;;;;;4968330;28;20490;-73
2022/10/09 05:29:25;;;;;;;0.20;0.20;;;7.40;99.90;;;;;;4986964;28;20039;-74
2022/10/09 05:31:51;;;;;;;0.20;0.20;;;7.40;99.90;;;;;;4964329;28;20494;-74
2022/10/09 05:34:17;;;;;;;0.20;0.20;;;7.40;99.90;;;;;;4963841;28;20109;-74
2022/10/09 05:36:42;;;;;;;0.20;0.20;;;7.40;99.90;;;;;;4967960;28;20468;-74
2022/10/09 05:39:08;;;;;;;0.20;0.20;;;7.30;99.90;;;;;;4985084;28;20121;-74
2022/10/09 05:41:34;;;;;;;0.20;0.20;;;7.30;99.90;;;;;;4964175;28;20077;-73
2022/10/09 05:44:01;;;;;;;0.20;0.20;;;7.30;99.90;;;;;;4981694;28;20391;-74
2022/10/09 05:46:28;;;;;;;0.20;0.20;;;7.30;99.90;;;;;;4964445;28;20046;-74
2022/10/09 05:48:59;;;;;;;0.20;0.20;;;7.20;99.90;;;;;;4981569;28;20042;-74
2022/10/09 05:51:27;;;;;;;0.20;0.20;;;7.30;99.90;;;;;;4981179;28;20042;-74
2022/10/09 05:53:54;;;;;;;0.20;0.20;;;7.20;99.90;;;;;;4966369;28;20046;-74
2022/10/09 05:56:25;;;;;;;0.20;0.20;;;7.20;99.90;;;;;;4986153;28;20070;-74
2022/10/09 05:59:00;;;;;;;0.20;0.20;;;7.30;99.90;;;;;;4967877;28;20035;-75
2022/10/09 06:01:29;;;;;;;0.20;0.20;;;7.20;99.90;;;;;;4981022;28;20096;-74
2022/10/09 06:03:56;;;;;;;0.10;0.10;;;7.30;99.90;;;;;;4963946;28;20125;-75
2022/10/09 06:06:24;;;;;;;0.20;0.20;;;7.30;99.90;;;;;;4982796;28;20039;-73
2022/10/09 06:14:05;;;;;;;0.20;0.20;;;7.20;99.90;;;;;;5051757;28;20044;-72
2022/10/09 06:16:37;;;;;;;0.10;0.10;;;7.20;99.90;;;;;;5050482;28;20087;-74
2022/10/09 06:19:09;;;;;;;0.15;0.15;;;7.30;99.90;;;;;;5047922;28;20048;-73
2022/10/09 06:24:21;;;;;;;0.20;0.20;;;7.20;99.90;;;;;;5047872;22;20516;-73
2022/10/09 06:26:46;;;;;;;0.20;0.20;;;7.20;99.90;;;;;;4996392;28;20050;-73
2022/10/09 06:29:12;;;;;;;0.20;0.20;;;7.20;99.90;;;;;;5011045;28;20083;-74
2022/10/09 06:31:38;;;;;;;0.20;0.20;;;7.20;99.90;;;;;;5004694;28;20493;-73
2022/10/09 06:34:03;;;;;;;0.10;0.10;;;7.40;99.90;;;;;;5011649;28;20525;-73
2022/10/09 06:36:32;;;;;;;0.10;0.10;;;7.20;99.90;;;;;;5021478;28;20133;-73
2022/10/09 06:38:59;;;;;;;0.10;0.10;;;7.20;99.90;;;;;;5040672;28;20080;-73
2022/10/09 06:41:27;;;;;;;0.20;0.20;;;7.20;99.90;;;;;;5027080;28;20102;-73
2022/10/09 06:43:54;;;;;;;0.20;0.20;;;7.30;99.90;;;;;;5030687;28;20057;-74
2022/10/09 06:46:26;;;;;;;0.17;0.17;;;7.20;99.90;;;;;;5006731;28;20040;-73
2022/10/09 06:48:52;;;;;;;0.20;0.20;;;7.20;99.90;;;;;;5014799;28;20544;-73
2022/10/09 06:51:20;;;;;;;0.15;0.15;;;7.30;99.90;;;;;;5035338;28;20081;-74
2022/10/09 06:53:51;;;;;;;0.20;0.20;;;7.30;99.90;;;;;;5029016;28;20053;-73
2022/10/09 06:56:18;;;;;;;0.20;0.20;;;7.30;99.90;;;;;;5017088;28;20033;-73
2022/10/09 06:58:47;;;;;;;0.20;0.20;;;7.30;99.90;;;;;;5033471;28;20044;-73
2022/10/09 07:01:14;;;;;;;0.20;0.20;;;7.40;99.90;;;;;;5027568;28;20107;-73
2022/10/09 07:03:44;;;;;;;0.20;0.20;;;7.40;99.90;;;;;;5027843;28;20167;-73
2022/10/09 07:06:12;;;;;;;0.20;0.20;;;7.50;99.90;;;;;;5031208;28;20064;-73
2022/10/09 07:08:39;;;;;;;0.20;0.20;;;7.50;99.90;;;;;;5024812;28;20061;-73
2022/10/09 07:11:23;;;;;;;0.20;0.20;;;7.50;99.90;;;;;;5034270;28;20045;-73
2022/10/09 07:13:54;;;;;;;0.10;0.10;;;7.60;99.90;;;;;;5010331;28;20496;-73
2022/10/09 07:16:23;;;;;;;0.20;0.20;;;7.60;99.90;;;;;;5013520;28;20071;-73
2022/10/09 07:18:49;;;;;;;0.20;0.20;;;7.70;99.90;;;;;;5009620;28;20037;-76
2022/10/09 07:21:16;;;;;;;0.10;0.10;;;7.70;99.90;;;;;;5019982;28;20106;-78
2022/10/09 07:23:47;;;;;;;0.20;0.20;;;7.70;99.90;;;;;;5031430;28;21357;-78
2022/10/09 07:26:24;;;;;;;;;;;7.80;99.90;;;;;;5033414;28;20037;-77
2022/10/09 07:28:51;;;;;;;0.17;0.17;;;7.80;99.90;;;;;;5013052;28;19980;-77
2022/10/09 07:31:17;;;;;;;0.20;0.20;;;7.90;99.90;;;;;;5019526;28;20607;-77
2022/10/09 07:33:45;;;;;;;0.10;0.10;;;7.90;99.90;;;;;;5014561;28;20045;-78
2022/10/09 07:36:14;;;;;;;0.20;0.20;;;7.90;99.90;;;;;;5017326;28;20489;-73
2022/10/09 07:38:39;;;;;;;0.20;0.20;;;8.00;99.90;;;;;;5020809;28;20081;-73
2022/10/09 07:41:10;;;;;;;0.20;0.20;;;8.00;99.90;;;;;;5005478;28;20077;-73
2022/10/09 07:43:38;;;;;;;0.20;0.20;;;8.10;99.90;;;;;;5008006;28;20038;-74
2022/10/09 07:46:06;;;;;;;0.10;0.10;;;8.10;99.90;;;;;;5002722;28;20046;-73
2022/10/09 07:48:33;;;;;;;0.20;0.20;;;8.20;99.90;;;;;;5021290;28;20033;-73
2022/10/09 07:51:10;;;;;;;0.20;0.20;;;8.20;99.90;;;;;;5023194;28;20044;-72
2022/10/09 07:53:36;;;;;;;0.20;0.20;;;8.30;99.90;;;;;;5031581;28;20029;-72
2022/10/09 07:56:03;;;;;;;0.20;0.20;;;8.40;99.90;;;;;;5006773;28;20049;-72
2022/10/09 07:58:29;;;;;;;0.13;0.13;;;8.40;99.90;;;;;;5007000;28;20041;-73
2022/10/09 08:01:08;;;;;;;0.20;0.20;;;8.50;99.90;;;;;;5011192;28;20433;-73
2022/10/09 08:03:35;;;;;;;0.20;0.20;;;8.60;99.90;;;;;;5015056;28;20038;-73
2022/10/09 08:06:57;;;;;;;0.13;0.13;;;8.60;99.90;;;;;;5163629;23;20121;-73
2022/10/09 08:09:25;;;;;;;0.20;0.20;;;9.30;99.90;;;;;;4988330;28;20209;-72
2022/10/09 08:11:54;;;;;;;0.20;0.20;;;9.00;99.90;;;;;;4989966;28;20047;-72
2022/10/09 08:14:19;;;;;;;0.20;0.20;;;9.00;99.90;;;;;;4962778;28;20047;-73
2022/10/09 08:16:46;;;;;;;0.10;0.10;;;9.10;99.90;;;;;;4965565;28;20146;-73
2022/10/09 08:19:12;;;;;;;0.10;0.10;;;9.20;99.90;;;;;;4963682;28;20067;-73
2022/10/09 08:21:38;;;;;;;0.10;0.10;;;9.30;99.90;;;;;;4966069;28;20124;-73
2022/10/09 08:24:04;;;;;;;0.20;0.20;;;9.40;99.90;;;;;;4979219;28;20553;-72
2022/10/09 08:26:30;;;;;;;0.10;0.10;;;9.50;99.90;;;;;;4966605;28;20651;-74
2022/10/09 08:28:58;;;;;;;0.20;0.20;;;9.60;99.90;;;;;;4977901;28;20069;-73
2022/10/09 08:31:24;;;;;;;0.20;0.20;;;9.70;99.90;;;;;;4960947;28;20057;-74
2022/10/09 08:33:55;;;;;;;0.25;0.25;;;9.90;99.90;;;;;;4985596;28;20047;-72
2022/10/09 08:36:22;;;;;;;0.20;0.20;;;10.00;99.90;;;;;;4969072;28;20053;-72
2022/10/09 08:38:48;;;;;;;0.20;0.20;;;10.10;99.90;;;;;;4971066;28;20051;-72
2022/10/09 08:41:41;;;;;;;0.20;0.20;;;10.20;99.90;;;;;;4974903;28;20062;-72
2022/10/09 08:44:12;;;;;;;0.15;0.15;;;10.30;99.90;;;;;;4968734;28;20043;-73
2022/10/09 08:47:17;;;;;;;0.20;0.20;;;10.40;99.90;;;;;;4998580;28;20058;-73
2022/10/09 08:49:58;;;;;;;0.20;0.20;;;10.50;99.90;;;;;;4963733;28;20053;-73
2022/10/09 08:52:47;;;;;;;0.20;0.20;;;10.70;99.90;;;;;;4969653;28;20702;-73
2022/10/09 08:55:47;;;;;;;0.20;0.20;;;10.80;99.90;;;;;;5003959;28;20054;-74
2022/10/09 08:58:19;;;;;;;0.20;0.20;;;10.90;99.90;;;;;;4966803;28;20125;-73
2022/10/09 09:00:47;;;;;;;0.20;0.20;;;11.00;99.90;;;;;;4975222;28;20046;-73
2022/10/09 09:03:47;;;;;;;0.10;0.10;;;11.40;99.90;;;;;;4971344;28;20050;-78
2022/10/09 09:06:30;;;;;;;0.20;0.20;;;11.30;99.90;;;;;;4967774;28;20495;-77
2022/10/09 09:09:13;;;;;;;0.20;0.20;;;11.30;99.90;;;;;;4970154;28;20093;-78
2022/10/09 09:12:07;;;;;;;0.10;0.10;;;11.40;99.90;;;;;;4966830;28;20079;-78
2022/10/09 09:15:08;;;;;;;0.10;0.10;;;11.50;99.90;;;;;;4963150;28;20054;-79
2022/10/09 09:17:57;;;;;;;0.20;0.20;;;11.60;99.90;;;;;;4962171;28;20244;-78
2022/10/09 09:20:29;;;;;;;0.10;0.10;;;11.70;99.90;;;;;;4962777;28;20368;-78
2022/10/09 09:22:57;;;;;;;0.17;0.17;;;11.80;99.90;;;;;;4966704;28;20506;-78
2022/10/09 09:25:35;;;;;;;0.20;0.20;;;11.90;99.90;;;;;;4974314;28;20039;-78
2022/10/09 09:28:17;;;;;;;0.10;0.10;;;12.00;99.90;;;;;;4969458;28;20058;-79
2022/10/09 09:31:06;;;;;;;0.10;0.10;;;12.10;99.90;;;;;;4963815;28;20054;-78
2022/10/09 09:33:44;;;;;;;0.13;0.13;;;12.10;99.90;;;;;;4978981;28;20042;-78
2022/10/09 09:36:37;;;;;;;0.13;0.13;;;12.20;99.90;;;;;;4993668;28;20047;-78
2022/10/09 09:39:03;;;;;;;0.20;0.20;;;12.40;99.90;;;;;;4975095;28;20050;-79
2022/10/09 09:41:28;;;;;;;0.20;0.20;;;12.40;99.90;;;;;;4964322;28;20046;-78
2022/10/09 09:43:54;;;;;;;0.20;0.20;;;12.50;99.90;;;;;;4959093;28;20047;-78
2022/10/09 09:46:24;;;;;;;0.10;0.10;;;12.60;99.90;;;;;;4956250;28;20050;-79
2022/10/09 09:48:49;;;;;;;0.13;0.13;;;12.70;99.90;;;;;;4953524;28;20483;-78
2022/10/09 09:51:21;;;;;;;0.10;0.10;;;12.70;99.90;;;;;;4961305;28;20046;-78
2022/10/09 09:53:51;;;;;;;0.20;0.20;;;12.80;99.90;;;;;;4997278;28;20535;-78
2022/10/09 09:56:18;;;;;;;0.13;0.13;;;13.00;99.90;;;;;;4954978;28;20047;-78
2022/10/09 09:58:47;;;;;;;0.10;0.10;;;13.00;99.90;;;;;;4967785;28;20043;-77
2022/10/09 10:01:29;;;;;;;0.20;0.20;;;13.10;99.90;;;;;;4966388;28;20124;-78
2022/10/09 10:04:00;;;;;;;0.20;0.20;;;13.20;99.90;;;;;;4964443;28;20406;-77
2022/10/09 10:06:40;;;;;;;0.10;0.10;;;13.30;99.90;;;;;;4965217;28;20051;-77
2022/10/09 10:09:18;;;;;;;0.20;0.20;;;13.30;99.90;;;;;;4970353;28;20047;-78
2022/10/09 10:11:59;;;;;;;0.20;0.20;;;13.40;99.90;;;;;;4969496;28;20042;-77
2022/10/09 10:14:26;;;;;;;0.20;0.20;;;13.50;99.90;;;;;;4993896;28;20167;-78
2022/10/09 10:16:54;;;;;;;0.20;0.20;;;13.50;99.90;;;;;;4963887;28;20042;-78
2022/10/09 10:19:29;;;;;;;0.20;0.20;;;13.60;99.90;;;;;;4959709;28;20068;-78
2022/10/09 10:22:06;;;;;;;0.10;0.10;;;13.60;99.90;;;;;;4959137;28;20051;-79
2022/10/09 10:24:34;;;;;;;0.10;0.10;;;13.70;99.90;;;;;;4965450;28;20078;-78
2022/10/09 10:27:21;;;;;;;0.20;0.20;;;13.80;99.90;;;;;;4967183;28;20035;-78
2022/10/09 10:29:51;;;;;;;0.10;0.10;;;13.90;99.90;;;;;;4993229;28;20051;-78
2022/10/09 10:32:26;;;;;;;0.20;0.20;;;13.90;99.90;;;;;;4959872;28;20530;-77
2022/10/09 10:35:10;;;;;;;0.13;0.13;;;14.00;99.90;;;;;;4957898;28;20038;-79
2022/10/09 10:37:47;;;;;;;0.20;0.20;;;14.10;99.90;;;;;;4959262;28;20039;-77
2022/10/09 10:40:30;;;;;;;0.20;0.20;;;14.10;99.90;;;;;;4970265;28;20066;-79
2022/10/09 10:43:23;;;;;;;0.20;0.20;;;14.20;99.90;;;;;;4970840;28;20039;-78
2022/10/09 10:46:07;;;;;;;0.10;0.10;;;14.20;99.90;;;;;;4966116;28;20054;-78
2022/10/09 10:48:42;;;;;;;0.13;0.13;;;14.30;99.90;;;;;;4967264;28;20539;-78
2022/10/09 10:51:32;;;;;;;0.10;0.10;;;14.30;99.90;;;;;;4959469;28;20070;-79
2022/10/09 10:54:16;;;;;;;0.10;0.10;;;14.30;99.90;;;;;;4969244;28;20439;-78
2022/10/09 10:56:45;;;;;;;0.20;0.20;;;14.50;99.90;;;;;;4970204;28;20188;-77
2022/10/09 10:59:22;;;;;;;0.20;0.20;;;14.60;99.90;;;;;;4969264;28;20126;-78
2022/10/09 11:02:25;;;;;;;0.20;0.20;;;14.70;99.90;;;;;;4969920;28;20055;-78
2022/10/09 11:05:15;;;;;;;0.10;0.10;;;14.80;99.90;;;;;;4963688;28;20101;-78
2022/10/09 11:08:25;;;;;;;0.10;0.10;;;14.90;99.90;;;;;;4965181;28;20058;-78
2022/10/09 11:10:58;;;;;;;0.20;0.20;;;15.10;99.90;;;;;;4970579;28;20051;-78
2022/10/09 11:13:32;;;;;;;0.20;0.20;;;15.20;99.90;;;;;;4967267;28;20043;-79
2022/10/09 11:16:05;;;;;;;0.10;0.10;;;15.30;99.90;;;;;;5003192;28;20073;-76
2022/10/09 11:19:15;;;;;;;0.20;0.20;;;15.30;99.90;;;;;;4992112;28;20055;-76
2022/10/09 11:22:11;;;;;;;0.20;0.20;;;15.30;99.90;;;;;;4976519;28;20047;-76
2022/10/09 11:24:59;;;;;;;0.10;0.10;;;15.40;99.90;;;;;;4976467;28;20589;-77
2022/10/09 11:27:40;;;;;;;0.20;0.20;;;15.50;99.90;;;;;;4968397;28;20126;-77
2022/10/09 11:30:15;;;;;;;0.20;0.20;;;15.50;99.90;;;;;;4983691;28;20058;-78
2022/10/09 11:33:01;;;;;;;0.20;0.20;;;15.50;99.90;;;;;;4967800;28;20117;-78
2022/10/09 11:35:35;;;;;;;0.15;0.15;;;15.50;99.90;;;;;;4959624;28;20050;-76
2022/10/09 11:38:13;;;;;;;0.10;0.10;;;15.60;99.90;;;;;;4969408;28;20043;-77
2022/10/09 11:40:42;;;;;;;0.20;0.20;;;15.70;99.90;;;;;;4967510;28;20051;-78
2022/10/09 11:43:25;;;;;;;0.20;0.20;;;15.70;99.90;;;;;;4967207;28;20047;-78
2022/10/09 11:45:57;;;;;;;0.20;0.20;;;15.90;99.90;;;;;;4968676;28;20050;-78
2022/10/09 11:48:53;;;;;;;0.10;0.10;;;16.00;99.90;;;;;;4968091;28;20039;-78
2022/10/09 11:51:23;;;;;;;0.20;0.20;;;16.10;99.90;;;;;;4969261;28;20047;-77
2022/10/09 11:53:51;;;;;;;0.20;0.20;;;16.30;99.90;;;;;;4967079;28;20054;-77
2022/10/09 11:56:28;;;;;;;0.20;0.20;;;16.40;99.90;;;;;;4967859;28;20031;-77
2022/10/09 11:59:05;;;;;;;0.10;0.10;;;16.80;99.90;;;;;;4969672;28;20046;-78
2022/10/09 12:01:40;;;;;;;0.20;0.20;;;17.10;99.90;;;;;;4969281;28;20117;-78
2022/10/09 12:04:10;;;;;;;0.20;0.20;;;17.60;99.90;;;;;;4963923;28;20294;-78
2022/10/09 12:06:54;;;;;;;0.20;0.20;;;17.80;99.90;;;;;;4965254;28;20043;-77
2022/10/09 12:09:32;;;;;;;0.20;0.20;;;18.00;99.90;;;;;;4968140;28;20039;-78
2022/10/09 12:12:15;;;;;;;0.20;0.20;;;18.00;99.90;;;;;;4966980;28;20058;-78
2022/10/09 12:14:47;;;;;;;0.20;0.20;;;18.00;99.90;;;;;;4965091;28;20491;-78
2022/10/09 12:17:22;;;;;;;0.20;0.20;;;18.10;99.90;;;;;;4958434;28;20043;-78
2022/10/09 12:20:00;;;;;;;0.20;0.20;;;18.30;99.90;;;;;;4967706;28;20043;-78
2022/10/09 12:22:40;;;;;;;0.20;0.20;;;18.50;99.90;;;;;;4967017;28;20139;-77
2022/10/09 12:25:14;;;;;;;0.20;0.20;;;18.50;99.90;;;;;;4967988;28;20262;-78
2022/10/09 12:27:40;;;;;;;0.10;0.10;;;18.50;99.90;;;;;;4968179;28;20051;-78
2022/10/09 12:30:12;;;;;;;0.20;0.20;;;18.80;99.90;;;;;;4969534;28;20043;-78
2022/10/09 12:32:45;;;;;;;0.20;0.20;;;19.20;99.90;;;;;;4967996;28;20078;-78
2022/10/09 12:35:36;;;;;;;0.20;0.20;;;19.50;99.90;;;;;;4967536;28;20506;-78
2022/10/09 12:38:21;;;;;;;0.20;0.20;;;20.00;99.90;;;;;;4962821;28;20055;-78
2022/10/09 12:40:47;;;;;;;0.20;0.20;;;20.20;99.90;;;;;;4968633;28;20062;-78
2022/10/09 12:43:17;;;;;;;0.20;0.20;;;20.30;99.90;;;;;;4968562;28;20484;-79
2022/10/09 12:45:45;;;;;;;0.20;0.20;;;20.50;99.90;;;;;;4967506;28;20038;-78
2022/10/09 12:48:13;;;;;;;0.10;0.10;;;21.00;99.90;;;;;;4968129;28;20415;-79
2022/10/09 12:50:39;;;;;;;0.20;0.20;;;22.10;99.90;;;;;;4969172;28;20043;-78
2022/10/09 12:53:26;;;;;;;0.20;0.20;;;23.30;99.90;;;;;;4965273;28;20098;-79
2022/10/09 12:55:59;;;;;;;0.20;0.20;;;23.90;99.70;;;;;;4960638;28;20106;-78
2022/10/09 12:58:35;;;;;;;0.20;0.20;;;23.70;96.70;;;;;;4972387;28;20062;-77
2022/10/09 13:01:04;;;;;;;0.20;0.20;;;23.20;95.10;;;;;;4975431;28;20050;-77
2022/10/09 13:03:42;;;;;;;0.20;0.20;;;23.30;97.60;;;;;;4969244;28;20129;-78
2022/10/09 13:06:23;;;;;;;0.20;0.20;;;24.20;99.90;;;;;;4967599;28;20051;-78
2022/10/09 13:08:56;;;;;;;0.20;0.20;;;25.80;99.70;;;;;;4966981;28;20105;-79
2022/10/09 13:11:34;;;;;;;0.20;0.20;;;27.10;97.80;;;;;;4964201;28;20069;-78
2022/10/09 13:14:00;;;;;;;0.20;0.20;;;;;;;;;;4965758;28;20704;-79
2022/10/09 13:16:46;;;;;;;0.20;0.20;;;;;;;;;;4968074;28;20467;-79
2022/10/09 13:19:23;;;;;;;0.20;0.20;;;;;;;;;;4966982;28;20038;-79
2022/10/09 13:22:22;;;;;;;0.20;0.20;;;30.40;85.40;;;;;;4967975;28;20535;-78
2022/10/09 13:24:52;;;;;;;0.20;0.20;;;30.50;87.10;;;;;;4954805;28;20503;-78
2022/10/09 13:27:19;;;;;;;0.20;0.20;;;31.80;85.70;;;;;;4972475;28;20043;-78
2022/10/09 13:29:46;;;;;;;0.20;0.20;;;32.10;70.80;;;;;;4971633;28;20522;-79
2022/10/09 13:32:14;;;;;;;0.20;0.20;;;31.90;73.30;;;;;;4971684;28;20586;-78
2022/10/09 13:34:40;;;;;;;0.20;0.20;;;31.80;70.40;;;;;;4968859;28;20683;-79
2022/10/09 13:37:09;;;;;;;0.17;0.17;;;31.10;68.30;;;;;;4972186;28;20047;-78
2022/10/09 13:39:35;;;;;;;0.17;0.17;;;30.00;64.10;;;;;;4971855;28;20068;-78
2022/10/09 13:42:01;;;;;;;0.20;0.20;;;28.50;65.80;;;;;;4970971;28;20541;-78
2022/10/09 13:44:27;;;;;;;0.20;0.20;;;27.40;67.40;;;;;;4969705;28;20483;-78
2022/10/09 13:46:53;;;;;;;0.20;0.20;;;26.50;67.10;;;;;;4972150;28;20043;-78
2022/10/09 13:49:19;;;;;;;0.20;0.20;;;25.50;66.10;;;;;;4981737;28;20051;-78
2022/10/09 13:51:45;;;;;;;0.20;0.20;;;24.80;70.20;;;;;;4977742;28;20038;-78
2022/10/09 13:54:10;;;;;;;0.20;0.20;;;24.40;71.60;;;;;;4978185;28;20166;-80
2022/10/09 13:56:36;;;;;;;0.30;0.30;;;23.90;69.50;;;;;;4983700;28;20039;-78
2022/10/09 13:59:05;;;;;;;0.20;0.20;;;23.10;70.90;;;;;;4968415;28;20047;-78
2022/10/09 14:01:30;;;;;;;0.20;0.20;;;22.50;73.30;;;;;;4985157;28;20075;-78
2022/10/09 14:03:56;;;;;;;0.20;0.20;;;22.20;75.20;;;;;;4970001;28;20082;-78
2022/10/09 14:06:21;;;;;;;0.20;0.20;;;21.80;75.30;;;;;;4968644;28;20054;-77
2022/10/09 14:08:48;;;;;;;0.20;0.20;;;21.50;72.50;;;;;;4970619;28;20051;-78
2022/10/09 14:11:14;;;;;;;0.20;0.20;;;21.00;75.30;;;;;;4970118;28;20537;-78
2022/10/09 14:13:39;;;;;;;0.20;0.20;;;20.60;76.10;;;;;;4969166;28;20042;-78
2022/10/09 14:16:06;;;;;;;0.22;0.22;;;20.30;77.40;;;;;;4971668;28;20053;-78
2022/10/09 14:18:32;;;;;;;0.20;0.20;;;20.20;80.30;;;;;;4960272;28;20043;-78
2022/10/09 14:20:58;;;;;;;0.20;0.20;;;20.20;83.00;;;;;;4972339;28;20046;-78
2022/10/09 14:23:26;;;;;;;0.20;0.20;;;20.40;86.00;;;;;;4969662;28;20039;-78
2022/10/09 14:25:52;;;;;;;0.20;0.20;;;20.40;85.40;;;;;;4972634;28;20410;-78
2022/10/09 14:28:17;;;;;;;0.20;0.20;;;20.30;85.10;;;;;;4962197;28;20035;-78
2022/10/09 14:30:43;;;;;;;0.20;0.20;;;20.00;85.70;;;;;;4969461;28;20047;-78
2022/10/09 14:33:09;;;;;;;0.20;0.20;;;19.70;84.80;;;;;;4967969;28;20070;-78
2022/10/09 14:35:35;;;;;;;0.20;0.20;;;19.40;85.80;;;;;;4967703;28;20043;-78
2022/10/09 14:38:00;;;;;;;0.20;0.20;;;19.10;87.30;;;;;;4966936;28;20136;-77
2022/10/09 14:40:26;;;;;;;0.20;0.20;;;18.80;86.70;;;;;;4975854;28;20073;-76